Bookmark and Share
Track history (hours):
 

MV Boron Navigator

Last reported at 2014-Jan-10 21:29 UTC. Time now 2014-Apr-16 10:29 UTC.
Position S 32°35' E 152°40'.
Warning: this ship's position is months out of date.

Length 189.8 m; beam 32.3 m.

Type: Cargo ship. MMSI: 355418000.

NotesDate/timePositionNaut miles runAvg speedWind from/ knotsBaromVisibWave heightAir tempDewpointWater temp
2014-Jan-10 21:29S 32°35' E 152°40'1011.2
2014-Jan-10 20:34S 32°40' E 152°29'1111.1
2014-Jan-10 19:34S 32°47' E 152°19'1010.0
2014-Jan-10 18:34S 32°52' E 152°09'1110.9
2014-Jan-10 17:33S 32°56' E 151°56'8 8.3
2014-Jan-10 16:33S 32°55' E 151°47'1 1.1
2014-Jan-10 15:33S 32°54' E 151°46'0 0.0
2014-Jan-10 14:33S 32°54' E 151°46'0 0.1
2014-Jan-10 13:33S 32°54' E 151°46'0 0.0
2014-Jan-10 12:33S 32°54' E 151°46'0 0.1
2014-Jan-10 11:33S 32°54' E 151°46'0 0.0
2014-Jan-10 10:33S 32°54' E 151°46'0 0.0
2014-Jan-10 09:33S 32°54' E 151°46'0 0.0
2014-Jan-10 08:33S 32°54' E 151°46'0 0.0
2014-Jan-10 07:33S 32°54' E 151°46'0 0.0
2014-Jan-10 06:24S 32°54' E 151°46'0 0.1
2014-Jan-10 05:33S 32°54' E 151°46'0 0.0
2014-Jan-10 04:33S 32°54' E 151°46'0 0.0
2014-Jan-10 03:33S 32°54' E 151°46'0 0.0
2014-Jan-10 02:27S 32°54' E 151°46'0 0.0
2014-Jan-10 01:33S 32°54' E 151°46'0 0.0
2014-Jan-10 00:33S 32°54' E 151°46'0 0.0
2014-Jan-09 23:27S 32°54' E 151°46'0 0.0
2014-Jan-09 22:33S 32°54' E 151°46'0 0.0
2014-Jan-09 21:33S 32°54' E 151°46'0 0.0
2014-Jan-09 20:33S 32°54' E 151°46'0 0.0
2014-Jan-09 19:33S 32°54' E 151°46'0 0.0
2014-Jan-09 18:27S 32°54' E 151°46'0 0.0
2014-Jan-09 17:33S 32°54' E 151°46'0 0.1
2014-Jan-09 16:33S 32°54' E 151°46'0 0.1
2014-Jan-09 15:33S 32°54' E 151°46'0 0.0
2014-Jan-09 14:33S 32°54' E 151°46'0 0.0
2014-Jan-09 13:33S 32°54' E 151°46'1 1.4
2014-Jan-09 12:32S 32°55' E 151°47'5 5.5
2014-Jan-09 11:33S 32°60' E 151°51'3 2.7
2014-Jan-09 10:33S 33°02' E 151°51'2 1.9
2014-Jan-09 09:33S 33°04' E 151°52'4 3.4
2014-Jan-09 08:31S 33°07' E 151°53'2 1.1
2014-Jan-09 06:26S 33°08' E 151°56'1 1.2
2014-Jan-09 05:33S 33°08' E 151°57'1 1.3
2014-Jan-09 04:33S 33°08' E 151°59'1 1.1
2014-Jan-09 03:33S 33°08' E 152°00'1 1.5
2014-Jan-09 02:33S 33°09' E 151°59'3 0.4
2014-Jan-08 20:20S 33°11' E 151°58'5 5.7
2014-Jan-08 19:33S 33°07' E 151°56'3 3.1
2014-Jan-08 18:33S 33°04' E 151°56'1 0.6
2014-Jan-08 17:33S 33°04' E 151°57'1 0.6
2014-Jan-08 16:33S 33°05' E 151°57'1 0.6
2014-Jan-08 15:30S 33°05' E 151°58'1 0.8
2014-Jan-08 14:33S 33°05' E 151°59'1 0.6
2014-Jan-08 13:33S 33°05' E 151°59'1 0.6
2014-Jan-08 12:33S 33°06' E 151°60'1 0.7
2014-Jan-08 11:33S 33°06' E 152°01'1 0.7
2014-Jan-08 10:33S 33°06' E 152°02'1 0.6
2014-Jan-08 09:29S 33°06' E 152°02'0 0.3
2014-Jan-08 08:33S 33°05' E 152°03'0 0.2
2014-Jan-08 07:33S 33°05' E 152°03'0 0.1
2014-Jan-08 06:33S 33°05' E 152°03'0 0.3
2014-Jan-08 05:33S 33°05' E 152°03'0 0.2
2014-Jan-08 04:33S 33°05' E 152°03'0 0.2
2014-Jan-08 03:33S 33°05' E 152°03'0 0.3
2014-Jan-08 02:33S 33°05' E 152°04'0 0.2
2014-Jan-08 01:33S 33°05' E 152°04'0 0.3
2014-Jan-08 00:33S 33°05' E 152°04'0 0.2
2014-Jan-07 23:33S 33°05' E 152°04'1 0.6
2014-Jan-07 22:33S 33°05' E 152°04'1 0.5
2014-Jan-07 21:33S 33°05' E 152°03'1 0.8
2014-Jan-07 20:33S 33°06' E 152°03'1 1.2
2014-Jan-07 19:33S 33°06' E 152°04'1 1.4
2014-Jan-07 18:33S 33°05' E 152°04'5 4.9
2014-Jan-07 17:33S 33°02' E 151°59'1 1.1
2014-Jan-07 16:33S 33°03' E 151°59'1 1.1
2014-Jan-07 15:33S 33°04' E 151°60'1 1.0
2014-Jan-07 14:33S 33°05' E 152°00'1 1.1
2014-Jan-07 13:33S 33°05' E 152°01'25 8.2
2014-Jan-07 10:33S 32°46' E 152°19'1212.0
2014-Jan-07 09:33S 32°39' E 152°31'29212.7
2014-Jan-06 10:34S 27°58' E 154°03'7114.2
2014-Jan-06 05:34S 26°47' E 154°06'  

Dump ship's entire track history

sailing weather and tide predictions

MV Boron Navigator — H9DA — position and weather